createdAt,value
2023-03-29T17:35:02.823Z,2.60
2023-03-29T17:36:53.449Z,4.70
2023-03-29T17:38:48.221Z,4.60
2023-03-29T17:40:38.856Z,4.10
2023-03-29T17:42:29.734Z,7.40
2023-03-29T17:44:20.406Z,5.70
2023-03-29T17:46:11.011Z,6.70
2023-03-29T17:48:02.818Z,7.90
2023-03-29T17:49:55.211Z,5.30
2023-03-29T17:51:45.610Z,2.60
2023-03-29T17:53:35.656Z,5.20
2023-03-29T17:55:26.728Z,3.40
2023-03-29T17:57:17.285Z,5.80
2023-03-29T17:59:07.524Z,5.90
2023-03-29T18:00:57.669Z,6.60
2023-03-29T18:02:48.232Z,3.70
2023-03-29T18:04:38.766Z,6.60
2023-03-29T18:06:28.952Z,5.70
2023-03-29T18:08:18.913Z,4.10
2023-03-29T18:10:09.280Z,4.30
2023-03-29T18:11:59.619Z,7.40
2023-03-29T18:13:51.111Z,6.80
2023-03-29T18:15:41.831Z,5.70
2023-03-29T18:17:33.039Z,4.30
2023-03-29T18:19:23.310Z,5.60
2023-03-29T18:21:15.433Z,5.10
2023-03-29T18:23:05.887Z,4.60
2023-03-29T18:24:56.086Z,6.20
2023-03-29T18:26:45.953Z,6.10
2023-03-29T18:28:36.885Z,5.80
2023-03-29T18:30:27.160Z,3.80
2023-03-29T18:32:17.080Z,3.70
2023-03-29T18:34:07.374Z,4.10
2023-03-29T18:35:57.499Z,5.30
2023-03-29T18:37:47.729Z,4.80
2023-03-29T18:39:38.187Z,5.10
2023-03-29T18:41:28.744Z,4.40
2023-03-29T18:43:19.242Z,10.40
2023-03-29T18:45:10.113Z,6.30
2023-03-29T18:47:00.454Z,6.00
2023-03-29T18:48:50.641Z,6.40
2023-03-29T18:50:44.311Z,5.40
2023-03-29T18:52:34.658Z,4.70
2023-03-29T18:54:24.686Z,5.60
2023-03-29T18:56:15.049Z,5.00
2023-03-29T18:58:05.255Z,5.10
2023-03-29T18:59:55.339Z,6.70
2023-03-29T19:01:45.792Z,7.10
2023-03-29T19:03:37.577Z,7.80
2023-03-29T19:05:28.197Z,6.50
2023-03-29T19:07:19.926Z,6.80
2023-03-29T19:09:10.520Z,5.30
2023-03-29T19:11:03.073Z,4.90
2023-03-29T19:12:53.161Z,7.20
2023-03-29T19:14:43.569Z,4.00
2023-03-29T19:16:33.462Z,6.90
2023-03-29T19:18:25.809Z,3.60
2023-03-29T19:20:16.252Z,5.50
2023-03-29T19:22:06.907Z,7.10
2023-03-29T19:23:59.344Z,6.00
2023-03-29T19:25:56.960Z,6.10
2023-03-29T19:27:47.140Z,6.80
2023-03-29T19:29:37.668Z,6.90
2023-03-29T19:31:27.824Z,4.10
2023-03-29T19:33:19.219Z,4.40
2023-03-29T19:35:12.069Z,5.10
2023-03-29T19:37:02.533Z,5.50
2023-03-29T19:38:53.474Z,4.60
2023-03-29T19:40:45.000Z,6.20
2023-03-29T19:42:35.619Z,4.70
2023-03-29T19:44:27.436Z,6.10
2023-03-29T19:46:17.976Z,6.30
2023-03-29T19:50:03.954Z,3.60
2023-03-29T19:51:56.672Z,5.80
2023-03-29T19:53:47.062Z,6.70
2023-03-29T19:55:38.835Z,5.40
2023-03-29T19:57:30.154Z,6.00
2023-03-29T19:59:20.464Z,7.10
2023-03-29T20:01:10.238Z,5.80
2023-03-29T20:03:01.483Z,6.00
2023-03-29T20:04:52.261Z,6.20
2023-03-29T20:06:42.525Z,5.30
2023-03-29T20:08:35.167Z,4.90
2023-03-29T20:10:26.371Z,2.90
2023-03-29T20:12:16.792Z,3.70
2023-03-29T20:14:07.745Z,5.90
2023-03-29T20:15:58.255Z,4.20
2023-03-29T20:17:48.260Z,4.20
2023-03-29T20:19:43.316Z,4.60
2023-03-29T20:21:33.664Z,6.90
2023-03-29T20:23:23.679Z,7.10
2023-03-29T20:25:13.725Z,6.80
2023-03-29T20:27:04.019Z,5.20
2023-03-29T20:28:54.059Z,8.50
2023-03-29T20:30:44.063Z,3.90
2023-03-29T20:32:34.061Z,6.30
2023-03-29T20:34:24.827Z,6.60
2023-03-29T20:36:22.291Z,7.30
2023-03-29T20:38:13.106Z,10.50
2023-03-29T20:40:04.730Z,9.00
2023-03-29T20:41:54.997Z,8.70
2023-03-29T20:43:45.643Z,7.50
2023-03-29T20:45:49.783Z,7.30
2023-03-29T20:47:49.448Z,7.50
2023-03-29T20:49:39.358Z,7.90
2023-03-29T20:51:32.087Z,14.80
2023-03-29T20:53:22.061Z,12.80
2023-03-29T20:55:12.341Z,12.90
2023-03-29T20:57:03.435Z,12.40
2023-03-29T20:58:55.005Z,10.30
2023-03-29T21:00:46.136Z,10.60
2023-03-29T21:02:36.114Z,8.80
2023-03-29T21:04:27.262Z,5.40
2023-03-29T21:06:18.619Z,4.00
2023-03-29T21:08:08.623Z,5.90
2023-03-29T21:10:00.376Z,6.30
2023-03-29T21:11:51.880Z,5.20
2023-03-29T21:13:42.782Z,5.20
2023-03-29T21:15:33.044Z,5.90
2023-03-29T21:17:23.016Z,5.30
2023-03-29T21:19:14.772Z,4.80
2023-03-29T21:21:07.151Z,4.70
2023-03-29T21:22:57.395Z,5.30
2023-03-29T21:24:47.278Z,4.70
2023-03-29T21:26:37.332Z,4.70
2023-03-29T21:28:27.791Z,5.50
2023-03-29T21:30:17.732Z,5.00
2023-03-29T21:32:07.630Z,4.80
2023-03-29T21:33:57.620Z,3.80
2023-03-29T21:35:48.538Z,5.50
2023-03-29T21:37:38.843Z,4.20
2023-03-29T21:39:29.464Z,3.90
2023-03-29T21:41:19.664Z,4.90
2023-03-29T21:43:09.521Z,6.50
2023-03-29T21:44:59.306Z,5.90
2023-03-29T21:48:30.747Z,5.40
2023-03-29T21:50:22.358Z,7.10
2023-03-29T21:52:14.078Z,6.30
2023-03-29T21:54:05.369Z,6.30
2023-03-29T21:55:56.965Z,5.30
2023-03-29T21:57:48.924Z,5.30
2023-03-29T21:59:40.357Z,5.30
2023-03-29T22:01:31.594Z,5.60
2023-03-29T22:03:23.429Z,4.70
2023-03-29T22:05:16.248Z,5.50
2023-03-29T22:07:08.395Z,4.30
2023-03-29T22:09:00.841Z,6.20
2023-03-29T22:10:56.800Z,3.90
2023-03-29T22:12:48.275Z,4.50
2023-03-29T22:14:39.619Z,4.20
2023-03-29T22:16:31.386Z,5.20
2023-03-29T22:18:23.975Z,5.00
2023-03-29T22:20:15.676Z,5.90
2023-03-29T22:22:13.992Z,7.00
2023-03-29T22:24:06.080Z,7.70
2023-03-29T22:25:57.963Z,8.00
2023-03-29T22:27:49.846Z,6.00
2023-03-29T22:29:41.094Z,4.20
2023-03-29T22:31:32.913Z,4.80
2023-03-29T22:33:24.602Z,4.60
2023-03-29T22:35:16.002Z,4.90
2023-03-29T22:37:07.515Z,4.60
2023-03-29T22:38:59.525Z,4.50
2023-03-29T22:40:50.946Z,4.70
2023-03-29T22:42:42.574Z,4.70
2023-03-29T22:44:34.043Z,5.00
2023-03-29T22:46:26.512Z,4.70
2023-03-29T22:48:17.619Z,4.70
2023-03-29T22:50:09.441Z,5.20
2023-03-29T22:52:01.525Z,6.20
2023-03-29T22:55:00.605Z,7.80
2023-03-29T22:56:55.905Z,8.40
2023-03-29T22:58:47.580Z,6.50
2023-03-29T23:00:39.079Z,6.90
2023-03-29T23:02:30.376Z,6.40
2023-03-29T23:04:22.322Z,6.50
2023-03-29T23:06:13.751Z,6.10
2023-03-29T23:08:06.901Z,6.30
2023-03-29T23:10:15.800Z,6.00
2023-03-29T23:12:07.272Z,4.50
2023-03-29T23:13:59.232Z,4.90
2023-03-29T23:15:52.811Z,4.60
2023-03-29T23:17:44.286Z,4.40
2023-03-29T23:19:36.719Z,4.40
2023-03-29T23:23:21.058Z,4.00
2023-03-29T23:25:13.365Z,3.30
2023-03-29T23:27:05.635Z,3.10
2023-03-29T23:30:58.008Z,3.90
2023-03-29T23:32:50.248Z,5.10
2023-03-29T23:34:42.266Z,3.50
2023-03-29T23:36:34.239Z,3.90
2023-03-29T23:38:26.411Z,3.50
2023-03-29T23:40:18.115Z,3.90
2023-03-29T23:42:09.493Z,3.60
2023-03-29T23:44:01.324Z,4.30
2023-03-29T23:46:01.124Z,4.30
2023-03-29T23:47:53.382Z,2.80
2023-03-29T23:49:45.492Z,3.80
2023-03-29T23:51:39.237Z,4.20
2023-03-29T23:53:31.645Z,3.60
2023-03-29T23:55:23.767Z,3.90
2023-03-29T23:57:15.419Z,3.60
2023-03-29T23:59:07.312Z,2.80
